Time;durP1;ratioP1;P1;durP2;ratioP2;P2;SDS_P1;SDS_P2;PMS_P1;PMS_P2;Temp;Humidity;BMP_temperature;BMP_pressure;BME280_temperature;BME280_humidity;BME280_pressure;Samples;Min_cycle;Max_cycle;Signal;HPM_P1;HPM_P2
2022/02/11 05:01:42;;;;;;;9.63;4.03;;;3.00;99.90;;;;;;5313347;23;20261;-70
2022/02/11 05:04:09;;;;;;;6.15;4.15;;;3.00;99.90;;;;;;4913508;29;20696;-69
2022/02/11 05:06:36;;;;;;;4.47;3.70;;;3.00;99.90;;;;;;4913415;29;20202;-70
2022/02/11 05:09:03;;;;;;;8.63;4.35;;;3.00;99.90;;;;;;4898639;29;20210;-69
2022/02/11 05:11:29;;;;;;;5.07;3.65;;;3.00;99.90;;;;;;4903147;29;20703;-69
2022/02/11 05:13:56;;;;;;;7.93;4.95;;;2.90;99.90;;;;;;4893868;29;20693;-69
2022/02/11 05:16:23;;;;;;;5.38;3.85;;;2.90;99.90;;;;;;4896510;29;20231;-70
2022/02/11 05:18:51;;;;;;;7.93;3.95;;;2.90;99.90;;;;;;4884744;29;20208;-69
2022/02/11 05:21:17;;;;;;;6.40;4.53;;;2.90;99.90;;;;;;4892540;29;20235;-70
2022/02/11 05:23:44;;;;;;;9.20;4.07;;;2.90;99.90;;;;;;4885439;29;20208;-70
2022/02/11 05:26:11;;;;;;;6.75;5.40;;;2.90;99.90;;;;;;4891053;29;20232;-69
2022/02/11 05:28:37;;;;;;;6.75;4.10;;;2.90;99.90;;;;;;4897434;29;20218;-69
2022/02/11 05:31:04;;;;;;;8.88;4.88;;;2.80;99.90;;;;;;4897681;29;20227;-69
2022/02/11 05:33:31;;;;;;;10.23;4.65;;;2.80;99.90;;;;;;4896678;29;20525;-69
2022/02/11 05:35:59;;;;;;;6.90;4.55;;;2.80;99.90;;;;;;4897794;29;20223;-69
2022/02/11 05:38:26;;;;;;;5.50;4.50;;;2.80;99.90;;;;;;4897248;29;20208;-69
2022/02/11 05:40:53;;;;;;;6.30;4.35;;;2.80;99.90;;;;;;4897980;29;20232;-69
2022/02/11 05:43:19;;;;;;;12.50;5.10;;;2.80;99.90;;;;;;4897382;29;20658;-69
2022/02/11 05:45:46;;;;;;;5.13;4.10;;;2.80;99.90;;;;;;4896250;29;20613;-69
2022/02/11 05:48:13;;;;;;;8.43;4.50;;;2.80;99.90;;;;;;4897830;29;20275;-69
2022/02/11 05:50:39;;;;;;;12.68;4.43;;;2.80;99.90;;;;;;4896977;29;20295;-69
2022/02/11 05:53:09;;;;;;;7.38;5.53;;;2.80;99.90;;;;;;4897714;29;20203;-69
2022/02/11 05:55:36;;;;;;;7.18;4.40;;;2.80;99.90;;;;;;4897833;29;20241;-69
2022/02/11 05:58:03;;;;;;;7.35;4.47;;;2.70;99.90;;;;;;4898819;29;20207;-70
2022/02/11 06:00:30;;;;;;;8.85;4.05;;;2.80;99.90;;;;;;4895686;29;20215;-69
2022/02/11 06:02:56;;;;;;;6.50;4.53;;;2.80;99.90;;;;;;4881106;29;20628;-69
2022/02/11 06:05:23;;;;;;;7.22;4.50;;;2.80;99.90;;;;;;4894975;29;20263;-69
2022/02/11 06:07:50;;;;;;;7.53;4.30;;;2.80;99.90;;;;;;4896760;29;20754;-70
2022/02/11 06:10:18;;;;;;;6.90;4.32;;;2.80;99.90;;;;;;4892698;29;20670;-69
2022/02/11 06:12:44;;;;;;;4.15;3.85;;;2.80;99.90;;;;;;4893285;29;20598;-69
2022/02/11 06:15:12;;;;;;;9.55;4.80;;;2.80;99.90;;;;;;4896758;29;20278;-69
2022/02/11 06:17:39;;;;;;;6.93;4.75;;;2.80;99.90;;;;;;4896740;29;20255;-69
2022/02/11 06:20:07;;;;;;;5.80;5.20;;;2.80;99.90;;;;;;4897023;29;20309;-69
2022/02/11 06:22:34;;;;;;;12.43;5.05;;;2.80;99.90;;;;;;4896809;29;20303;-69
2022/02/11 06:25:01;;;;;;;6.38;5.07;;;2.90;99.90;;;;;;4897236;29;20204;-69
2022/02/11 06:27:29;;;;;;;9.68;5.25;;;2.90;99.90;;;;;;4896223;29;20207;-69
2022/02/11 06:29:55;;;;;;;10.07;5.35;;;2.90;99.90;;;;;;4896928;29;20211;-69
2022/02/11 06:32:22;;;;;;;4.50;3.85;;;2.90;99.90;;;;;;4896254;29;20227;-70
2022/02/11 06:34:50;;;;;;;8.50;4.82;;;2.90;99.90;;;;;;4897274;29;20298;-69
2022/02/11 06:37:16;;;;;;;6.32;4.85;;;3.00;99.90;;;;;;4896274;29;20242;-70
2022/02/11 06:39:43;;;;;;;9.52;5.72;;;3.00;99.90;;;;;;4896662;29;20211;-69
2022/02/11 06:42:10;;;;;;;8.82;4.95;;;3.00;99.90;;;;;;4895053;29;20227;-69
2022/02/11 06:44:38;;;;;;;10.52;6.05;;;3.00;99.90;;;;;;4896078;29;20211;-70
2022/02/11 06:47:05;;;;;;;12.38;6.85;;;3.00;99.90;;;;;;4894468;29;20259;-69
2022/02/11 06:49:31;;;;;;;9.90;6.05;;;3.00;99.90;;;;;;4895613;29;20227;-69
2022/02/11 06:51:58;;;;;;;12.88;6.93;;;3.00;99.90;;;;;;4896576;29;20223;-69
2022/02/11 06:54:25;;;;;;;13.43;6.38;;;3.00;99.90;;;;;;4896784;29;20270;-70
2022/02/11 06:56:51;;;;;;;10.57;7.70;;;3.10;99.90;;;;;;4895321;29;20231;-69
2022/02/11 06:59:18;;;;;;;8.50;6.15;;;3.10;99.90;;;;;;4886489;29;20212;-70
2022/02/11 07:01:46;;;;;;;13.73;7.35;;;3.20;99.90;;;;;;4888934;29;20287;-69
2022/02/11 07:04:13;;;;;;;12.77;7.35;;;3.20;99.90;;;;;;4892662;29;20215;-69
2022/02/11 07:06:40;;;;;;;13.60;8.27;;;3.30;99.90;;;;;;4896131;29;20205;-69
2022/02/11 07:09:07;;;;;;;15.40;7.28;;;3.30;99.90;;;;;;4896538;29;20271;-69
2022/02/11 07:11:33;;;;;;;7.35;6.38;;;3.40;99.90;;;;;;4891763;29;20794;-69
2022/02/11 07:14:00;;;;;;;11.90;7.07;;;3.40;99.90;;;;;;4892968;29;20212;-69
2022/02/11 07:16:27;;;;;;;12.38;7.55;;;3.40;99.90;;;;;;4888973;29;20280;-67
2022/02/11 07:18:55;;;;;;;12.10;7.15;;;3.40;99.90;;;;;;4898949;29;20218;-70
2022/02/11 07:21:22;;;;;;;8.63;6.80;;;3.40;99.90;;;;;;4905473;29;20241;-68
2022/02/11 07:23:48;;;;;;;10.88;7.10;;;3.50;99.90;;;;;;4898908;29;20223;-68
2022/02/11 07:26:15;;;;;;;10.60;7.43;;;3.50;99.90;;;;;;4902112;29;20207;-68
2022/02/11 07:28:42;;;;;;;45.45;29.27;;;3.50;99.90;;;;;;4888122;29;20215;-68
2022/02/11 07:31:08;;;;;;;12.07;8.27;;;3.50;99.90;;;;;;4885913;29;20287;-68
2022/02/11 07:33:35;;;;;;;14.07;10.32;;;3.50;99.90;;;;;;4895893;29;20206;-69
2022/02/11 07:36:04;;;;;;;19.75;13.43;;;3.50;99.90;;;;;;4897677;29;20238;-69
2022/02/11 07:38:31;;;;;;;22.67;13.90;;;3.60;99.90;;;;;;4904094;29;20210;-69
2022/02/11 07:40:58;;;;;;;18.33;12.15;;;3.60;99.90;;;;;;4903254;29;20618;-69
2022/02/11 07:43:25;;;;;;;14.65;10.27;;;3.60;99.90;;;;;;4894199;29;20215;-68
2022/02/11 07:45:52;;;;;;;23.60;11.80;;;3.60;99.90;;;;;;4894320;29;20665;-69
2022/02/11 07:48:19;;;;;;;13.70;10.40;;;3.60;99.90;;;;;;4911370;29;20215;-67
2022/02/11 07:50:45;;;;;;;14.90;8.30;;;3.70;99.90;;;;;;4907739;29;20309;-68
2022/02/11 07:53:16;;;;;;;15.20;9.80;;;3.70;99.90;;;;;;4895794;29;20211;-67
2022/02/11 07:55:42;;;;;;;14.95;8.90;;;3.70;99.90;;;;;;4895259;29;20211;-68
2022/02/11 07:58:09;;;;;;;11.73;8.50;;;3.80;99.90;;;;;;4895598;29;20543;-68
2022/02/11 08:00:36;;;;;;;17.02;9.70;;;3.80;99.90;;;;;;4894665;29;20239;-68
2022/02/11 08:03:02;;;;;;;24.17;14.25;;;3.80;99.90;;;;;;4900256;29;20222;-68
2022/02/11 08:05:29;;;;;;;19.75;12.75;;;3.90;99.90;;;;;;4899121;29;20322;-68
2022/02/11 08:07:56;;;;;;;14.43;10.50;;;3.90;99.90;;;;;;4907880;29;20652;-68
2022/02/11 08:10:24;;;;;;;12.88;8.50;;;3.90;99.90;;;;;;4899443;29;20199;-68
2022/02/11 08:12:51;;;;;;;14.95;8.38;;;3.90;99.90;;;;;;4895498;29;20282;-69
2022/02/11 08:15:18;;;;;;;14.52;11.93;;;4.00;99.90;;;;;;4894713;29;20634;-70
2022/02/11 08:17:44;;;;;;;17.85;14.40;;;4.00;99.90;;;;;;4895051;29;20227;-68
2022/02/11 08:20:12;;;;;;;18.13;10.60;;;4.00;99.90;;;;;;4892788;29;20211;-68
2022/02/11 08:22:39;;;;;;;12.70;8.95;;;4.10;99.90;;;;;;4884083;29;20207;-68
2022/02/11 08:25:06;;;;;;;17.90;12.50;;;4.10;99.90;;;;;;4888326;29;20215;-67
2022/02/11 08:27:34;;;;;;;10.65;9.55;;;4.10;99.90;;;;;;4895654;29;20210;-68
2022/02/11 08:30:01;;;;;;;12.15;10.60;;;4.10;99.90;;;;;;4885579;29;20283;-67
2022/02/11 08:32:29;;;;;;;8.18;6.80;;;4.10;99.90;;;;;;4876780;29;20594;-67
2022/02/11 08:34:56;;;;;;;8.82;7.55;;;4.10;99.90;;;;;;4889548;29;20214;-67
2022/02/11 08:37:23;;;;;;;9.43;7.93;;;4.10;99.90;;;;;;4893563;29;20287;-67
2022/02/11 08:39:50;;;;;;;10.75;8.20;;;4.10;99.90;;;;;;4895597;29;20591;-68
2022/02/11 08:42:18;;;;;;;8.10;6.63;;;4.10;99.90;;;;;;4902051;29;20651;-68
2022/02/11 08:44:46;;;;;;;9.00;6.25;;;4.10;99.90;;;;;;4889842;29;20215;-68
2022/02/11 08:47:13;;;;;;;11.48;6.85;;;4.20;99.90;;;;;;4904292;29;20200;-68
2022/02/11 08:49:41;;;;;;;11.10;7.18;;;4.20;99.90;;;;;;4893608;29;20215;-68
2022/02/11 08:52:09;;;;;;;9.43;7.68;;;4.20;99.90;;;;;;4897486;29;20227;-68
2022/02/11 08:54:35;;;;;;;17.15;13.25;;;4.20;99.90;;;;;;4893972;29;20310;-70
2022/02/11 08:57:03;;;;;;;31.38;18.75;;;4.20;99.90;;;;;;4899032;29;20230;-68
2022/02/11 08:59:29;;;;;;;22.50;15.23;;;4.20;99.90;;;;;;4900041;29;20620;-68
2022/02/11 09:01:57;;;;;;;19.10;13.85;;;4.20;99.90;;;;;;4896453;29;20313;-69
2022/02/11 09:04:24;;;;;;;15.35;7.78;;;4.30;99.90;;;;;;4895751;29;20203;-69
2022/02/11 09:06:51;;;;;;;9.75;7.05;;;4.30;99.90;;;;;;4901705;29;20290;-68
2022/02/11 09:09:17;;;;;;;10.40;8.88;;;4.40;99.90;;;;;;4893643;29;20207;-68
2022/02/11 09:11:44;;;;;;;29.67;20.23;;;4.40;99.90;;;;;;4889280;29;20231;-68
2022/02/11 09:14:11;;;;;;;16.77;13.05;;;4.40;99.90;;;;;;4884507;29;20653;-68
2022/02/11 09:16:38;;;;;;;11.90;7.40;;;4.40;99.90;;;;;;4899549;29;20277;-68
2022/02/11 09:19:09;;;;;;;16.08;10.52;;;4.50;99.90;;;;;;4896402;29;20208;-68
2022/02/11 09:21:36;;;;;;;8.32;7.53;;;4.50;99.90;;;;;;4898119;29;20680;-68
2022/02/11 09:24:04;;;;;;;10.95;9.82;;;4.50;99.90;;;;;;4898371;29;20211;-67
2022/02/11 09:26:30;;;;;;;15.57;8.48;;;4.60;99.90;;;;;;4896737;29;20211;-68
2022/02/11 09:28:57;;;;;;;9.35;7.40;;;4.60;99.90;;;;;;4898193;29;20268;-67
2022/02/11 09:31:27;;;;;;;7.70;7.10;;;4.70;99.90;;;;;;4887426;29;20223;-69
2022/02/11 09:33:55;;;;;;;15.02;9.68;;;4.80;99.90;;;;;;4895937;29;20211;-70
2022/02/11 09:36:23;;;;;;;38.17;20.10;;;4.90;99.90;;;;;;4893178;29;20298;-68
2022/02/11 09:38:50;;;;;;;10.85;8.05;;;5.00;99.90;;;;;;4898983;29;20211;-68
2022/02/11 09:41:17;;;;;;;7.00;6.13;;;5.00;99.90;;;;;;4898076;29;20237;-68
2022/02/11 09:43:46;;;;;;;7.55;5.75;;;5.00;99.90;;;;;;4898587;29;20219;-68
2022/02/11 09:46:13;;;;;;;6.15;4.88;;;5.00;99.90;;;;;;4911899;29;20290;-68
2022/02/11 09:48:40;;;;;;;11.27;6.38;;;5.10;99.90;;;;;;4914978;29;20216;-68
2022/02/11 09:51:07;;;;;;;10.32;7.82;;;5.10;99.90;;;;;;4898195;29;20283;-68
2022/02/11 09:53:35;;;;;;;11.75;8.73;;;5.20;99.90;;;;;;4898262;29;20282;-69
2022/02/11 09:56:03;;;;;;;12.85;10.02;;;5.20;99.90;;;;;;4898683;29;20295;-68
2022/02/11 09:58:30;;;;;;;8.20;7.43;;;5.20;99.90;;;;;;4898004;29;20597;-68
2022/02/11 10:00:57;;;;;;;9.68;8.68;;;5.20;99.90;;;;;;4897544;29;20235;-68
2022/02/11 10:03:26;;;;;;;6.20;5.70;;;5.20;99.90;;;;;;4897312;29;20274;-68
2022/02/11 10:05:57;;;;;;;9.02;7.10;;;5.30;99.90;;;;;;4898462;29;20211;-68
2022/02/11 10:08:25;;;;;;;9.48;8.57;;;5.30;99.90;;;;;;4904846;29;20310;-70
2022/02/11 10:10:55;;;;;;;6.90;6.30;;;5.30;99.90;;;;;;4903857;29;20230;-69
2022/02/11 10:13:25;;;;;;;5.32;4.93;;;5.30;99.90;;;;;;4897929;29;20222;-69
2022/02/11 10:15:55;;;;;;;7.40;5.47;;;5.20;99.90;;;;;;4897838;29;20206;-68
2022/02/11 10:18:26;;;;;;;7.28;6.43;;;5.30;99.90;;;;;;4897493;29;20635;-69
2022/02/11 10:20:56;;;;;;;6.03;5.53;;;5.20;99.90;;;;;;4897587;29;20227;-69
2022/02/11 10:23:24;;;;;;;12.57;9.02;;;5.30;99.90;;;;;;4897603;29;20223;-68
2022/02/11 10:25:55;;;;;;;6.40;5.85;;;5.30;99.90;;;;;;4879004;29;20212;-68
2022/02/11 10:28:27;;;;;;;5.93;5.50;;;5.40;99.90;;;;;;4878774;29;20204;-69
2022/02/11 10:31:09;;;;;;;6.00;5.55;;;5.60;99.90;;;;;;4890707;29;20231;-69
2022/02/11 10:33:49;;;;;;;9.98;8.52;;;5.70;99.90;;;;;;4897198;29;20258;-68
2022/02/11 10:36:17;;;;;;;5.55;5.05;;;5.80;99.90;;;;;;4916222;29;20242;-68
2022/02/11 10:38:44;;;;;;;5.50;5.00;;;5.80;99.90;;;;;;4916229;29;20744;-68
2022/02/11 10:41:14;;;;;;;6.32;5.82;;;5.90;99.90;;;;;;4902061;29;20286;-68
2022/02/11 10:43:40;;;;;;;4.47;4.22;;;5.90;99.90;;;;;;4896985;29;20267;-68
2022/02/11 10:46:16;;;;;;;4.50;4.20;;;6.00;99.90;;;;;;4897896;29;20632;-67
2022/02/11 10:48:43;;;;;;;4.07;3.88;;;6.00;99.90;;;;;;4896719;29;20315;-68
2022/02/11 10:51:21;;;;;;;4.72;3.60;;;6.00;99.90;;;;;;4897061;29;20235;-69
2022/02/11 10:53:47;;;;;;;4.30;4.10;;;6.00;99.90;;;;;;4897361;29;20215;-68
2022/02/11 10:56:16;;;;;;;4.57;4.25;;;6.00;99.90;;;;;;4897569;29;20297;-68
2022/02/11 10:58:53;;;;;;;4.55;4.25;;;6.10;99.90;;;;;;4888776;29;20243;-69
2022/02/11 11:01:20;;;;;;;4.50;4.20;;;6.10;99.90;;;;;;4892649;29;20243;-68
2022/02/11 11:03:47;;;;;;;4.80;4.40;;;6.00;99.90;;;;;;4896742;29;20222;-68
2022/02/11 11:06:15;;;;;;;4.40;4.10;;;6.00;99.90;;;;;;4897637;29;20557;-68
2022/02/11 11:08:42;;;;;;;3.88;3.58;;;6.00;99.90;;;;;;4896775;29;20213;-68
2022/02/11 11:11:10;;;;;;;5.63;5.13;;;5.90;99.90;;;;;;4896928;29;20314;-68
2022/02/11 11:13:38;;;;;;;5.45;4.93;;;5.90;99.90;;;;;;4895379;29;20557;-68
2022/02/11 11:16:08;;;;;;;7.07;6.38;;;5.80;99.90;;;;;;4897020;29;20219;-69
2022/02/11 11:18:37;;;;;;;6.22;5.63;;;5.80;99.90;;;;;;4896403;29;20219;-69
2022/02/11 11:21:07;;;;;;;6.20;5.60;;;5.90;99.90;;;;;;4896734;29;20294;-68
2022/02/11 11:23:37;;;;;;;8.00;7.10;;;5.90;99.90;;;;;;4896772;29;20259;-68
2022/02/11 11:26:09;;;;;;;6.30;5.82;;;5.90;99.90;;;;;;4896650;29;20211;-69
2022/02/11 11:28:41;;;;;;;5.90;5.40;;;5.80;99.90;;;;;;4896120;29;20294;-68
2022/02/11 11:31:27;;;;;;;5.72;5.32;;;5.90;99.90;;;;;;4896620;29;20223;-68
2022/02/11 11:34:30;;;;;;;6.35;5.85;;;5.90;99.90;;;;;;4896139;29;20361;-70
2022/02/11 11:37:03;;;;;;;6.22;5.60;;;5.90;99.90;;;;;;4894648;29;20246;-68
2022/02/11 11:39:30;;;;;;;6.10;5.53;;;5.90;99.90;;;;;;4910675;29;20242;-69
2022/02/11 11:42:05;;;;;;;5.93;5.43;;;6.00;99.90;;;;;;4915317;29;20587;-70
2022/02/11 11:44:49;;;;;;;6.88;6.28;;;6.10;99.90;;;;;;4915163;29;20194;-70
2022/02/11 11:47:28;;;;;;;5.00;4.60;;;6.10;99.90;;;;;;4914852;29;20265;-69
2022/02/11 11:49:56;;;;;;;5.75;5.25;;;6.20;99.90;;;;;;4896024;29;20285;-70
2022/02/11 11:52:23;;;;;;;6.15;5.70;;;6.20;99.90;;;;;;4896037;29;20235;-69
2022/02/11 11:55:20;;;;;;;5.40;5.00;;;6.20;99.90;;;;;;4896498;29;20536;-69
2022/02/11 11:57:47;;;;;;;5.40;4.90;;;6.30;99.90;;;;;;4895959;29;20668;-70
2022/02/11 12:00:32;;;;;;;6.07;5.35;;;6.30;99.90;;;;;;4894908;29;20284;-69
2022/02/11 12:02:59;;;;;;;5.32;4.93;;;6.30;99.90;;;;;;4904599;29;20198;-70
2022/02/11 12:05:41;;;;;;;6.55;5.07;;;6.30;99.90;;;;;;4914854;29;20628;-70
2022/02/11 12:08:08;;;;;;;6.57;5.45;;;6.30;99.90;;;;;;4913527;29;20242;-70
2022/02/11 12:10:37;;;;;;;5.50;5.00;;;6.30;99.90;;;;;;4895403;29;20243;-69
2022/02/11 12:13:04;;;;;;;8.05;5.75;;;6.30;99.90;;;;;;4896093;29;20271;-69
2022/02/11 12:15:31;;;;;;;6.32;5.78;;;6.30;99.90;;;;;;4895805;29;20251;-69
2022/02/11 12:17:59;;;;;;;4.82;4.45;;;6.20;99.90;;;;;;4895311;29;20281;-69
2022/02/11 12:20:26;;;;;;;7.82;4.70;;;6.30;99.90;;;;;;4895012;29;20701;-69
2022/02/11 12:28:20;;;;;;;6.60;5.93;;;6.30;99.90;;;;;;4878462;29;20210;-69
2022/02/11 12:30:48;;;;;;;6.88;6.20;;;6.40;99.90;;;;;;4895258;29;20302;-68
2022/02/11 12:33:15;;;;;;;6.22;5.70;;;6.40;99.90;;;;;;4894975;29;20222;-68
2022/02/11 12:35:45;;;;;;;6.47;5.88;;;6.50;99.90;;;;;;4895992;29;20214;-68
2022/02/11 12:38:11;;;;;;;6.88;6.20;;;6.50;99.90;;;;;;4894984;29;20290;-68
2022/02/11 12:40:41;;;;;;;6.50;4.88;;;6.50;99.90;;;;;;4892538;29;20235;-68
2022/02/11 12:43:10;;;;;;;6.25;5.75;;;6.40;99.90;;;;;;4910472;29;20266;-67
2022/02/11 12:45:40;;;;;;;5.97;5.45;;;6.30;99.90;;;;;;4914083;29;20208;-68
2022/02/11 12:48:10;;;;;;;6.25;5.57;;;6.30;99.90;;;;;;4905152;29;20207;-68
2022/02/11 12:50:38;;;;;;;6.20;5.50;;;6.40;99.90;;;;;;4876711;29;20319;-68
2022/02/11 12:53:07;;;;;;;6.78;5.55;;;6.50;99.90;;;;;;4876845;29;20212;-70
2022/02/11 12:55:36;;;;;;;6.95;6.20;;;6.60;99.90;;;;;;4876740;29;20215;-69
2022/02/11 12:58:06;;;;;;;8.45;5.97;;;6.70;99.90;;;;;;4876818;29;20274;-69
2022/02/11 13:00:35;;;;;;;6.18;5.57;;;6.60;99.90;;;;;;4894193;29;20225;-69
2022/02/11 13:03:05;;;;;;;6.50;6.00;;;6.60;99.90;;;;;;4895356;29;20195;-69
2022/02/11 13:05:36;;;;;;;8.20;6.22;;;6.60;99.90;;;;;;4895357;29;20210;-69
2022/02/11 13:08:04;;;;;;;8.57;6.82;;;6.70;99.90;;;;;;4895243;29;20302;-69
2022/02/11 13:10:32;;;;;;;6.22;5.50;;;6.70;99.90;;;;;;4894694;29;20234;-69
2022/02/11 13:13:01;;;;;;;11.52;6.10;;;6.60;99.90;;;;;;4895813;29;20211;-69
2022/02/11 13:15:30;;;;;;;5.25;4.80;;;6.60;99.90;;;;;;4895441;29;20311;-69
2022/02/11 13:18:07;;;;;;;6.70;5.53;;;6.50;99.90;;;;;;4894762;29;20307;-69
2022/02/11 13:20:37;;;;;;;5.53;4.28;;;6.50;99.90;;;;;;4894897;29;20509;-69
2022/02/11 13:23:05;;;;;;;7.82;4.72;;;6.50;99.90;;;;;;4894827;29;20219;-69
2022/02/11 13:25:33;;;;;;;4.55;4.25;;;6.40;99.90;;;;;;4895360;29;20223;-69
2022/02/11 13:28:06;;;;;;;4.13;3.83;;;6.40;99.90;;;;;;4896110;29;20263;-69
2022/02/11 13:30:34;;;;;;;5.63;3.55;;;6.40;99.90;;;;;;4894589;29;20263;-69
2022/02/11 13:33:19;;;;;;;5.30;4.60;;;6.40;99.90;;;;;;4894747;29;20212;-69
2022/02/11 13:35:47;;;;;;;5.20;4.65;;;6.50;99.90;;;;;;4881542;29;20299;-68
2022/02/11 13:38:21;;;;;;;5.50;5.00;;;6.60;99.90;;;;;;4879057;29;20308;-69
2022/02/11 13:40:53;;;;;;;5.03;4.30;;;6.60;99.90;;;;;;4879386;29;20327;-69
2022/02/11 13:43:19;;;;;;;5.70;5.03;;;6.60;99.90;;;;;;4879899;29;20279;-69
2022/02/11 13:45:53;;;;;;;5.43;4.97;;;6.60;99.90;;;;;;4887602;29;20219;-69
2022/02/11 13:48:23;;;;;;;7.57;5.88;;;6.60;99.90;;;;;;4908527;29;20211;-68
2022/02/11 13:50:58;;;;;;;5.70;5.20;;;6.60;99.90;;;;;;4917238;29;20646;-68
2022/02/11 13:53:30;;;;;;;9.10;5.97;;;6.60;99.90;;;;;;4917641;29;20344;-68
2022/02/11 13:55:57;;;;;;;5.90;5.47;;;6.60;99.90;;;;;;4910228;29;20210;-70
2022/02/11 13:58:23;;;;;;;8.88;6.10;;;6.70;99.90;;;;;;4898457;29;20227;-70
2022/02/11 14:00:50;;;;;;;11.48;7.05;;;6.60;99.90;;;;;;4897495;29;20615;-69
2022/02/11 14:03:24;;;;;;;8.20;7.50;;;6.60;99.90;;;;;;4897482;29;20558;-69
2022/02/11 14:05:53;;;;;;;10.25;9.25;;;6.50;99.90;;;;;;4897910;29;20629;-69
2022/02/11 14:08:21;;;;;;;8.73;7.95;;;6.50;99.90;;;;;;4898173;29;20263;-69
2022/02/11 14:10:49;;;;;;;8.35;7.53;;;6.40;99.90;;;;;;4897864;29;20267;-69
2022/02/11 14:13:16;;;;;;;10.65;6.35;;;6.20;99.90;;;;;;4897946;29;20215;-68
2022/02/11 14:15:44;;;;;;;7.43;6.40;;;6.00;99.90;;;;;;4897357;29;20293;-69
2022/02/11 14:18:12;;;;;;;5.68;4.82;;;5.80;99.90;;;;;;4897387;29;20231;-69
2022/02/11 14:20:40;;;;;;;5.72;5.32;;;5.70;99.90;;;;;;4898121;29;20242;-68
2022/02/11 14:23:14;;;;;;;5.07;4.57;;;5.60;99.90;;;;;;4898316;29;20252;-68
2022/02/11 14:25:42;;;;;;;5.18;4.78;;;5.50;99.90;;;;;;4884415;29;20225;-68
2022/02/11 14:28:10;;;;;;;3.00;2.90;;;5.50;99.90;;;;;;4897885;29;20208;-70
2022/02/11 14:30:39;;;;;;;4.03;2.85;;;5.40;99.90;;;;;;4897242;29;20238;-69
2022/02/11 14:33:06;;;;;;;2.70;2.60;;;5.30;99.90;;;;;;4897386;29;20676;-69
2022/02/11 14:35:32;;;;;;;1.67;1.65;;;5.30;99.90;;;;;;4897158;29;20675;-68
2022/02/11 14:38:00;;;;;;;2.13;2.00;;;5.10;99.90;;;;;;4897486;29;20736;-69
2022/02/11 14:40:27;;;;;;;6.45;2.55;;;5.10;99.90;;;;;;4897278;29;20211;-69
2022/02/11 14:42:54;;;;;;;4.63;2.17;;;5.10;99.90;;;;;;4897717;29;20267;-69
2022/02/11 14:45:21;;;;;;;3.30;2.45;;;5.10;99.90;;;;;;4897022;29;20208;-69
2022/02/11 14:47:47;;;;;;;1.40;1.40;;;5.10;99.90;;;;;;4896566;29;20208;-68
2022/02/11 14:50:14;;;;;;;2.20;1.63;;;5.10;99.90;;;;;;4901968;29;20305;-68
2022/02/11 14:52:41;;;;;;;1.05;0.88;;;5.10;99.90;;;;;;4915974;29;20285;-68
2022/02/11 14:55:10;;;;;;;0.80;0.80;;;5.10;99.90;;;;;;4903839;29;20211;-70
2022/02/11 14:57:36;;;;;;;1.20;1.20;;;5.10;99.90;;;;;;4897103;29;20215;-69
2022/02/11 15:00:04;;;;;;;1.98;1.08;;;5.10;99.90;;;;;;4878279;29;20247;-68
2022/02/11 15:02:31;;;;;;;1.05;1.00;;;5.10;99.90;;;;;;4877831;29;20235;-71
2022/02/11 15:04:57;;;;;;;1.60;0.80;;;5.10;99.90;;;;;;4889089;29;20247;-70
2022/02/11 15:07:24;;;;;;;1.30;1.30;;;5.10;99.90;;;;;;4897058;29;20211;-69
2022/02/11 15:09:51;;;;;;;1.30;1.13;;;5.10;99.90;;;;;;4896802;29;20211;-69
2022/02/11 15:12:19;;;;;;;1.65;0.80;;;5.00;99.90;;;;;;4896948;29;20322;-68
2022/02/11 15:14:46;;;;;;;3.38;1.52;;;5.00;99.90;;;;;;4896271;29;20207;-68
2022/02/11 15:17:16;;;;;;;1.33;1.33;;;5.10;99.90;;;;;;4896448;29;20291;-69
2022/02/11 15:19:43;;;;;;;0.80;0.80;;;5.10;99.90;;;;;;4896456;29;20287;-69
2022/02/11 15:22:12;;;;;;;1.60;1.50;;;5.10;99.90;;;;;;4896438;29;20287;-69
2022/02/11 15:24:43;;;;;;;4.22;1.33;;;5.10;99.90;;;;;;4896671;29;20302;-68
2022/02/11 15:27:09;;;;;;;1.67;1.25;;;5.20;99.90;;;;;;4896848;29;20195;-69
2022/02/11 15:29:37;;;;;;;0.90;0.90;;;5.20;99.90;;;;;;4895892;29;20215;-68
2022/02/11 15:32:05;;;;;;;2.35;1.83;;;5.20;99.90;;;;;;4895963;29;20732;-68
2022/02/11 15:34:32;;;;;;;2.03;1.75;;;5.10;99.90;;;;;;4896461;29;20203;-68
2022/02/11 15:36:58;;;;;;;3.58;1.85;;;5.10;99.90;;;;;;4896794;29;20279;-68
2022/02/11 15:39:25;;;;;;;2.38;1.20;;;5.10;99.90;;;;;;4896253;29;20227;-68
2022/02/11 15:41:52;;;;;;;1.77;1.40;;;5.10;99.90;;;;;;4895818;29;20227;-69
2022/02/11 15:44:18;;;;;;;3.78;1.52;;;5.00;99.90;;;;;;4895342;29;20657;-68
2022/02/11 15:46:46;;;;;;;2.00;1.90;;;4.90;99.90;;;;;;4889973;29;20619;-69
2022/02/11 15:49:13;;;;;;;1.40;1.30;;;4.90;99.90;;;;;;4888088;29;20255;-68
2022/02/11 15:51:40;;;;;;;1.00;1.00;;;4.90;99.90;;;;;;4891675;29;20227;-68
2022/02/11 15:54:07;;;;;;;7.13;3.22;;;4.80;99.90;;;;;;4895248;29;20211;-68
2022/02/11 15:56:33;;;;;;;2.05;1.50;;;4.80;99.90;;;;;;4908112;29;20240;-68
2022/02/11 15:59:00;;;;;;;2.67;1.23;;;4.70;99.90;;;;;;4884942;29;20769;-68
2022/02/11 16:01:27;;;;;;;2.40;1.33;;;4.70;99.90;;;;;;4885525;29;20331;-68
2022/02/11 16:03:55;;;;;;;2.38;1.10;;;4.70;99.90;;;;;;4889372;29;20303;-69
2022/02/11 16:06:21;;;;;;;2.85;0.90;;;4.60;99.90;;;;;;4886003;29;20282;-67
2022/02/11 16:08:48;;;;;;;5.78;1.33;;;4.60;99.90;;;;;;4894671;29;20263;-67
2022/02/11 16:11:14;;;;;;;1.00;1.00;;;4.60;99.90;;;;;;4895485;29;20239;-68
2022/02/11 16:13:41;;;;;;;1.45;0.90;;;4.50;99.90;;;;;;4885187;29;20286;-68
2022/02/11 16:16:08;;;;;;;1.52;1.38;;;4.50;99.90;;;;;;4889568;29;20283;-68
2022/02/11 16:18:35;;;;;;;2.90;1.73;;;4.40;99.90;;;;;;4891470;29;20303;-68
2022/02/11 16:21:03;;;;;;;3.83;2.17;;;4.30;99.90;;;;;;4895408;29;20703;-68
2022/02/11 16:23:31;;;;;;;3.05;2.58;;;4.30;99.90;;;;;;4894278;29;20291;-67
2022/02/11 16:25:59;;;;;;;5.20;4.10;;;4.20;99.90;;;;;;4891482;29;20603;-68
2022/02/11 16:28:26;;;;;;;4.88;3.80;;;4.10;99.90;;;;;;4894134;29;20267;-69
2022/02/11 16:30:53;;;;;;;8.25;6.80;;;4.10;99.90;;;;;;4891055;29;20783;-70
2022/02/11 16:33:22;;;;;;;13.68;10.98;;;4.10;99.90;;;;;;4894382;29;20271;-69
2022/02/11 16:35:49;;;;;;;6.03;5.43;;;4.00;99.90;;;;;;4896019;29;20222;-69
2022/02/11 16:38:17;;;;;;;6.07;5.57;;;3.90;99.90;;;;;;4905590;29;20226;-69
2022/02/11 16:40:44;;;;;;;5.63;5.13;;;3.90;99.90;;;;;;4893585;29;20283;-68
2022/02/11 16:43:11;;;;;;;9.52;5.60;;;3.90;99.90;;;;;;4891878;29;20239;-68
2022/02/11 16:45:38;;;;;;;5.80;5.25;;;3.80;99.90;;;;;;4897097;29;20216;-69
2022/02/11 16:48:05;;;;;;;6.85;5.53;;;3.80;99.90;;;;;;4883987;29;20207;-69
2022/02/11 16:50:32;;;;;;;5.07;4.45;;;3.70;99.90;;;;;;4886132;29;20212;-69
2022/02/11 16:52:58;;;;;;;3.17;2.85;;;3.70;99.90;;;;;;4894334;29;20286;-69
2022/02/11 16:55:26;;;;;;;2.92;2.72;;;3.70;99.90;;;;;;4895584;29;20305;-70
2022/02/11 16:57:53;;;;;;;3.03;2.83;;;3.70;99.90;;;;;;4889846;29;20663;-69
2022/02/11 17:00:20;;;;;;;4.15;3.75;;;3.60;99.90;;;;;;4886923;29;20227;-69
2022/02/11 17:02:46;;;;;;;4.10;3.78;;;3.60;99.90;;;;;;4898718;29;20207;-67
2022/02/11 17:05:13;;;;;;;12.82;5.65;;;3.60;99.90;;;;;;4892992;29;20287;-69
2022/02/11 17:07:40;;;;;;;5.40;3.92;;;3.50;99.90;;;;;;4894089;29;20203;-70
2022/02/11 17:10:08;;;;;;;6.20;4.20;;;3.50;99.90;;;;;;4892495;29;20238;-69
2022/02/11 17:12:37;;;;;;;10.57;4.10;;;3.50;99.90;;;;;;4898555;29;20266;-70
2022/02/11 17:15:04;;;;;;;3.78;3.47;;;3.40;99.90;;;;;;4898237;29;20310;-69
2022/02/11 17:17:31;;;;;;;4.85;3.75;;;3.40;99.90;;;;;;4897675;29;20219;-69
2022/02/11 17:19:58;;;;;;;3.13;2.92;;;3.40;99.90;;;;;;4910487;29;20230;-69
2022/02/11 17:22:24;;;;;;;3.05;2.83;;;3.40;99.90;;;;;;4889267;29;20275;-71
2022/02/11 17:24:51;;;;;;;8.27;2.95;;;3.30;99.90;;;;;;4899140;29;20207;-70
2022/02/11 17:27:18;;;;;;;3.78;2.20;;;3.30;99.90;;;;;;4898625;29;20636;-69
2022/02/11 17:29:46;;;;;;;2.80;2.30;;;3.30;99.90;;;;;;4897538;29;20267;-70
2022/02/11 17:32:13;;;;;;;3.28;1.88;;;3.30;99.90;;;;;;4898651;29;20235;-70
2022/02/11 17:34:40;;;;;;;2.63;2.42;;;3.20;99.90;;;;;;4898206;29;20232;-67
2022/02/11 17:37:07;;;;;;;2.90;2.08;;;3.20;99.90;;;;;;4897814;29;20212;-69
2022/02/11 17:39:34;;;;;;;3.80;2.60;;;3.10;99.90;;;;;;4895789;29;20278;-68
2022/02/11 17:42:02;;;;;;;3.67;2.13;;;3.20;99.90;;;;;;4898422;29;20246;-69
2022/02/11 17:44:28;;;;;;;3.03;1.98;;;3.20;99.90;;;;;;4897235;29;20219;-69
2022/02/11 17:46:57;;;;;;;3.95;3.13;;;3.20;99.90;;;;;;4895325;29;20287;-69
2022/02/11 17:49:23;;;;;;;7.05;3.83;;;3.10;99.90;;;;;;4879581;29;20307;-69
2022/02/11 17:51:51;;;;;;;1.67;1.58;;;3.10;99.90;;;;;;4885323;29;20247;-69
2022/02/11 17:54:18;;;;;;;4.65;2.50;;;3.20;99.90;;;;;;4884120;29;20211;-69
2022/02/11 17:56:46;;;;;;;3.50;3.20;;;3.20;99.90;;;;;;4885105;29;20211;-69
2022/02/11 17:59:14;;;;;;;4.65;2.67;;;3.20;99.90;;;;;;4903943;29;20223;-69
2022/02/11 18:01:42;;;;;;;2.42;2.13;;;3.20;99.90;;;;;;4896566;29;20588;-68
2022/02/11 18:04:11;;;;;;;2.38;2.17;;;3.20;99.90;;;;;;4897261;29;20515;-68